Time;durP1;ratioP1;P1;durP2;ratioP2;P2;SDS_P1;SDS_P2;PMS_P1;PMS_P2;Temp;Humidity;BMP_temperature;BMP_pressure;BME280_temperature;BME280_humidity;BME280_pressure;Samples;Min_cycle;Max_cycle;Signal;HPM_P1;HPM_P2
2022/02/27 00:00:47;;;;;;;6.18;2.53;;;4.90;58.90;;;;;;2278979;55;20990;-69
2022/02/27 00:03:13;;;;;;;5.65;1.70;;;4.90;58.80;;;;;;2370251;55;21004;-69
2022/02/27 00:05:40;;;;;;;5.07;1.60;;;4.90;58.80;;;;;;2279722;56;20975;-69
2022/02/27 00:08:09;;;;;;;3.15;1.20;;;4.90;58.80;;;;;;2342223;55;20923;-69
2022/02/27 00:10:35;;;;;;;6.47;2.28;;;4.90;58.70;;;;;;2281885;55;20996;-69
2022/02/27 00:13:04;;;;;;;5.57;2.05;;;4.90;58.80;;;;;;2312729;55;21050;-69
2022/02/27 00:15:31;;;;;;;4.87;1.60;;;4.90;58.80;;;;;;2372936;55;21018;-69
2022/02/27 00:17:57;;;;;;;3.28;1.08;;;4.90;58.90;;;;;;2299238;55;21050;-69
2022/02/27 00:20:24;;;;;;;4.20;1.20;;;4.90;58.70;;;;;;2449189;55;21034;-69
2022/02/27 00:22:55;;;;;;;4.82;1.30;;;4.90;58.70;;;;;;2279167;55;21080;-69
2022/02/27 00:25:21;;;;;;;3.10;1.10;;;4.90;58.60;;;;;;2283273;55;20970;-69
2022/02/27 00:27:47;;;;;;;4.43;1.42;;;4.80;58.40;;;;;;2292186;55;20947;-69
2022/02/27 00:30:14;;;;;;;5.32;1.55;;;4.80;58.40;;;;;;2278371;56;21491;-68
2022/02/27 00:32:40;;;;;;;4.47;1.30;;;4.70;58.30;;;;;;2451209;55;21123;-69
2022/02/27 00:35:08;;;;;;;3.00;1.40;;;4.70;58.20;;;;;;2281602;55;21043;-69
2022/02/27 00:37:34;;;;;;;6.45;1.65;;;4.60;58.20;;;;;;2431943;55;20994;-69
2022/02/27 00:40:05;;;;;;;4.37;1.30;;;4.50;58.10;;;;;;2299957;55;20968;-68
2022/02/27 00:42:31;;;;;;;4.62;1.42;;;4.50;58.10;;;;;;2278459;56;20951;-69
2022/02/27 00:44:58;;;;;;;4.53;1.40;;;4.40;58.00;;;;;;2278108;56;20938;-68
2022/02/27 00:47:24;;;;;;;4.37;1.20;;;4.40;58.10;;;;;;2338049;55;21594;-69
2022/02/27 00:49:51;;;;;;;4.60;1.15;;;4.30;58.00;;;;;;2280254;56;20979;-69
2022/02/27 00:52:22;;;;;;;4.30;1.10;;;4.20;58.00;;;;;;2354928;55;20939;-69
2022/02/27 00:54:49;;;;;;;3.40;0.93;;;4.20;58.10;;;;;;2322011;55;21735;-68
2022/02/27 00:57:16;;;;;;;4.60;1.12;;;4.10;58.10;;;;;;2510897;55;20995;-68
2022/02/27 00:59:44;;;;;;;4.00;1.10;;;4.10;58.20;;;;;;2511022;55;21361;-69
2022/02/27 01:02:11;;;;;;;4.60;1.40;;;4.00;58.20;;;;;;2282168;55;20947;-68
2022/02/27 01:04:38;;;;;;;4.90;1.40;;;3.90;58.20;;;;;;2277122;55;20995;-69
2022/02/27 01:07:04;;;;;;;13.15;2.83;;;3.90;58.30;;;;;;2378323;55;21070;-69
2022/02/27 01:09:31;;;;;;;10.02;2.40;;;3.90;58.30;;;;;;2488241;55;20951;-68
2022/02/27 01:11:58;;;;;;;9.13;2.00;;;3.80;58.40;;;;;;2271475;55;20996;-68
2022/02/27 01:14:24;;;;;;;6.50;1.80;;;3.80;58.50;;;;;;2278426;56;20943;-68
2022/02/27 01:16:53;;;;;;;4.28;1.30;;;3.70;58.50;;;;;;2392835;55;20963;-69
2022/02/27 01:19:20;;;;;;;5.03;1.30;;;3.70;58.60;;;;;;2278747;56;20967;-70
2022/02/27 01:21:46;;;;;;;4.47;1.10;;;3.70;58.70;;;;;;2336261;55;20919;-69
2022/02/27 01:24:14;;;;;;;4.07;1.30;;;3.60;58.70;;;;;;2278486;55;20964;-68
2022/02/27 01:26:40;;;;;;;3.28;1.35;;;3.60;58.70;;;;;;2414998;55;20991;-70
2022/02/27 01:29:07;;;;;;;5.37;1.60;;;3.60;58.70;;;;;;2267420;55;21524;-70
2022/02/27 01:31:33;;;;;;;4.00;1.55;;;3.50;58.70;;;;;;2364514;55;21752;-68
2022/02/27 01:34:00;;;;;;;5.87;1.10;;;3.50;58.70;;;;;;2278177;56;21618;-69
2022/02/27 01:36:28;;;;;;;4.37;1.23;;;3.50;58.80;;;;;;2509415;55;21054;-70
2022/02/27 01:38:55;;;;;;;6.15;1.33;;;3.40;58.80;;;;;;2266803;55;20974;-68
2022/02/27 01:41:25;;;;;;;4.40;1.00;;;3.40;58.80;;;;;;2512827;55;21281;-70
2022/02/27 01:43:53;;;;;;;5.43;1.00;;;3.40;58.90;;;;;;2275887;55;20951;-69
2022/02/27 01:46:20;;;;;;;3.42;1.00;;;3.30;58.90;;;;;;2280823;55;21732;-70
2022/02/27 01:48:46;;;;;;;2.75;1.00;;;3.30;58.90;;;;;;2333688;55;21014;-69
2022/02/27 01:51:13;;;;;;;3.83;1.00;;;3.30;58.90;;;;;;2306601;55;21019;-69
2022/02/27 01:53:39;;;;;;;4.10;1.08;;;3.30;59.00;;;;;;2338499;55;21291;-69
2022/02/27 01:56:40;;;;;;;3.83;0.93;;;3.30;59.10;;;;;;2280381;56;20959;-70
2022/02/27 01:59:37;;;;;;;4.93;1.20;;;3.20;58.90;;;;;;2279905;56;21015;-69
2022/02/27 02:02:04;;;;;;;4.68;0.90;;;3.20;59.00;;;;;;2279638;55;21189;-69
2022/02/27 02:04:31;;;;;;;2.87;0.98;;;3.10;59.10;;;;;;2296264;55;21066;-69
2022/02/27 02:07:38;;;;;;;2.92;1.23;;;3.10;59.20;;;;;;2359867;55;20963;-70
2022/02/27 02:10:05;;;;;;;4.05;1.00;;;3.10;59.20;;;;;;2489600;55;21442;-70
2022/02/27 02:12:32;;;;;;;3.10;1.10;;;3.10;59.40;;;;;;2278576;56;21059;-70
2022/02/27 02:14:59;;;;;;;4.15;1.10;;;3.10;59.50;;;;;;2278922;55;20926;-69
2022/02/27 02:17:26;;;;;;;3.92;1.20;;;3.10;59.60;;;;;;2464507;55;20955;-70
2022/02/27 02:19:53;;;;;;;5.65;1.20;;;3.20;59.80;;;;;;2509699;55;21035;-69
2022/02/27 02:22:22;;;;;;;3.60;1.25;;;3.20;59.90;;;;;;2259293;56;20974;-68
2022/02/27 02:24:49;;;;;;;6.50;1.20;;;3.20;60.70;;;;;;2297187;55;21519;-68
2022/02/27 02:27:16;;;;;;;4.22;0.98;;;3.20;60.20;;;;;;2289611;55;21538;-68
2022/02/27 02:29:44;;;;;;;4.25;1.10;;;3.30;60.30;;;;;;2341186;55;21036;-68
2022/02/27 02:32:10;;;;;;;4.85;1.20;;;3.30;60.40;;;;;;2283768;55;20970;-68
2022/02/27 02:34:36;;;;;;;5.10;1.20;;;3.40;60.60;;;;;;2521650;55;21773;-69
2022/02/27 02:37:03;;;;;;;6.72;1.10;;;3.50;61.00;;;;;;2287404;55;20965;-69
2022/02/27 02:39:29;;;;;;;2.90;0.80;;;3.50;61.00;;;;;;2318715;55;20958;-69
2022/02/27 02:41:57;;;;;;;5.45;1.20;;;3.60;61.00;;;;;;2287220;55;20945;-68
2022/02/27 02:44:24;;;;;;;3.28;1.08;;;3.70;61.00;;;;;;2313067;55;21777;-68
2022/02/27 02:46:51;;;;;;;3.25;0.95;;;3.70;60.90;;;;;;2287130;55;21018;-69
2022/02/27 02:49:17;;;;;;;5.47;0.95;;;3.80;60.90;;;;;;2305323;55;21034;-69
2022/02/27 02:51:44;;;;;;;3.85;0.98;;;3.80;60.80;;;;;;2286871;55;21581;-69
2022/02/27 02:54:11;;;;;;;3.83;1.33;;;3.90;60.80;;;;;;2504185;55;21434;-69
2022/02/27 02:56:37;;;;;;;3.25;1.20;;;3.90;60.90;;;;;;2409687;55;20992;-68
2022/02/27 02:59:04;;;;;;;4.55;1.12;;;4.00;61.00;;;;;;2287171;55;21028;-69
2022/02/27 03:01:30;;;;;;;6.12;1.52;;;4.00;60.90;;;;;;2287544;55;21006;-68
2022/02/27 03:04:01;;;;;;;4.82;1.70;;;4.10;61.50;;;;;;2322991;55;21087;-69
2022/02/27 03:06:27;;;;;;;5.40;1.20;;;4.10;60.90;;;;;;2290399;55;20966;-69
2022/02/27 03:08:53;;;;;;;3.78;1.20;;;4.20;61.00;;;;;;2348222;55;21110;-69
2022/02/27 03:11:20;;;;;;;5.25;1.50;;;4.20;60.90;;;;;;2289571;55;20969;-69
2022/02/27 03:13:46;;;;;;;5.50;1.30;;;4.30;61.00;;;;;;2500753;55;20962;-69
2022/02/27 03:16:13;;;;;;;4.30;1.30;;;4.30;60.90;;;;;;2287486;55;21723;-69
2022/02/27 03:18:39;;;;;;;4.18;1.30;;;4.40;60.90;;;;;;2287532;55;21780;-68
2022/02/27 03:21:08;;;;;;;5.47;1.10;;;4.40;60.80;;;;;;2287307;55;21009;-68
2022/02/27 03:23:34;;;;;;;4.22;1.00;;;4.40;60.60;;;;;;2287556;55;21396;-69
2022/02/27 03:26:01;;;;;;;4.03;0.90;;;4.40;60.40;;;;;;2287734;55;21045;-68
2022/02/27 03:28:27;;;;;;;5.30;1.40;;;4.40;60.20;;;;;;2287580;55;21683;-69
2022/02/27 03:30:54;;;;;;;4.03;1.23;;;4.40;60.10;;;;;;2281171;55;4544531;-68
2022/02/27 03:33:20;;;;;;;7.28;1.40;;;4.40;60.10;;;;;;2495064;55;21002;-68
2022/02/27 03:35:46;;;;;;;6.80;1.50;;;4.40;60.00;;;;;;2287354;55;21494;-68
2022/02/27 03:38:13;;;;;;;8.27;1.62;;;4.30;60.00;;;;;;2289678;54;21077;-69
2022/02/27 03:40:42;;;;;;;5.25;1.35;;;4.30;60.20;;;;;;2400583;55;21070;-69
2022/02/27 03:43:08;;;;;;;4.95;1.62;;;4.40;60.40;;;;;;2308070;55;20981;-69
2022/02/27 03:45:35;;;;;;;4.25;0.90;;;4.40;60.50;;;;;;2287321;55;21423;-69
2022/02/27 03:48:01;;;;;;;7.40;1.30;;;4.40;60.60;;;;;;2288312;55;21006;-69
2022/02/27 03:50:30;;;;;;;5.55;1.60;;;4.40;60.70;;;;;;2292371;55;21073;-69
2022/02/27 03:52:56;;;;;;;5.80;1.27;;;4.40;60.70;;;;;;2491250;55;21740;-69
2022/02/27 03:55:23;;;;;;;3.12;1.20;;;4.50;60.90;;;;;;2289062;55;21431;-68
2022/02/27 03:57:49;;;;;;;7.22;1.98;;;4.50;60.90;;;;;;2286644;55;21514;-69
2022/02/27 04:00:16;;;;;;;4.05;1.55;;;4.50;60.90;;;;;;2286859;55;21014;-69
2022/02/27 04:02:45;;;;;;;6.62;1.45;;;4.60;61.00;;;;;;2286151;55;21010;-69
2022/02/27 04:05:15;;;;;;;5.62;1.40;;;4.60;61.00;;;;;;2310736;55;21908;-69
2022/02/27 04:07:41;;;;;;;4.32;1.12;;;4.60;60.90;;;;;;2286999;55;20974;-69
2022/02/27 04:10:08;;;;;;;4.05;1.30;;;4.60;60.80;;;;;;2287160;55;21002;-69
2022/02/27 04:12:34;;;;;;;7.03;1.33;;;4.70;60.90;;;;;;2287699;55;21454;-69
2022/02/27 04:15:00;;;;;;;5.80;1.30;;;4.70;60.70;;;;;;2287486;55;20978;-69
2022/02/27 04:17:26;;;;;;;6.62;1.65;;;4.70;60.80;;;;;;2521901;55;20958;-69
2022/02/27 04:19:53;;;;;;;4.32;1.27;;;4.80;60.80;;;;;;2288099;54;20982;-69
2022/02/27 04:22:22;;;;;;;4.87;1.30;;;4.80;60.70;;;;;;2285710;55;20950;-69
2022/02/27 04:24:49;;;;;;;4.30;1.12;;;4.80;60.50;;;;;;2377503;55;21431;-69
2022/02/27 04:27:16;;;;;;;4.93;1.40;;;4.80;60.30;;;;;;2292387;55;21032;-69
2022/02/27 04:29:45;;;;;;;3.47;1.10;;;4.80;60.20;;;;;;2293673;55;20994;-69
2022/02/27 04:32:12;;;;;;;3.65;1.25;;;4.80;60.00;;;;;;2354759;55;20962;-69
2022/02/27 04:34:38;;;;;;;7.70;1.30;;;4.80;60.00;;;;;;2287363;55;21647;-69
2022/02/27 04:37:05;;;;;;;3.60;1.02;;;4.80;59.90;;;;;;2286462;55;20962;-68
2022/02/27 04:39:32;;;;;;;4.37;1.30;;;4.80;59.80;;;;;;2346811;55;21016;-69
2022/02/27 04:41:58;;;;;;;2.83;1.10;;;4.80;59.90;;;;;;2278924;55;20938;-69
2022/02/27 04:44:25;;;;;;;3.83;1.40;;;4.70;59.90;;;;;;2345249;55;20993;-68
2022/02/27 04:46:51;;;;;;;6.75;1.40;;;4.70;59.90;;;;;;2287533;55;20993;-69
2022/02/27 04:49:17;;;;;;;4.60;1.60;;;4.70;60.00;;;;;;2287716;55;20981;-68
2022/02/27 04:51:44;;;;;;;4.15;1.17;;;4.70;59.90;;;;;;2291804;55;20972;-69
2022/02/27 04:54:10;;;;;;;5.28;1.02;;;4.70;59.90;;;;;;2355327;55;20938;-69
2022/02/27 04:56:37;;;;;;;6.62;1.30;;;4.60;59.80;;;;;;2286737;55;21038;-69
2022/02/27 04:59:05;;;;;;;3.03;1.00;;;4.60;59.80;;;;;;2287434;55;21041;-69
2022/02/27 05:01:35;;;;;;;4.35;0.98;;;4.60;59.70;;;;;;2289327;55;21499;-68
2022/02/27 05:04:01;;;;;;;5.47;1.30;;;4.60;59.50;;;;;;2399265;55;21005;-68
2022/02/27 05:06:28;;;;;;;5.60;1.30;;;4.50;59.50;;;;;;2349649;55;20941;-69
2022/02/27 05:08:54;;;;;;;4.40;1.20;;;4.50;59.40;;;;;;2287216;55;21046;-68
2022/02/27 05:11:21;;;;;;;3.85;1.45;;;4.50;59.50;;;;;;2287413;55;20958;-68
2022/02/27 05:13:47;;;;;;;3.42;1.20;;;4.50;59.40;;;;;;2287320;55;20942;-68
2022/02/27 05:16:14;;;;;;;4.60;0.90;;;4.40;59.30;;;;;;2288137;55;21037;-68
2022/02/27 05:18:40;;;;;;;5.12;1.00;;;4.40;59.30;;;;;;2287187;55;20966;-69
2022/02/27 05:21:07;;;;;;;3.45;1.00;;;4.30;59.20;;;;;;2287583;55;20954;-69
2022/02/27 05:23:33;;;;;;;4.18;1.30;;;4.20;59.20;;;;;;2287802;55;21018;-69
2022/02/27 05:25:59;;;;;;;3.17;1.02;;;4.20;59.20;;;;;;2287626;55;20966;-68
2022/02/27 05:28:26;;;;;;;3.70;1.00;;;4.20;59.20;;;;;;2287365;55;20970;-68
2022/02/27 05:30:53;;;;;;;3.87;1.45;;;4.10;59.20;;;;;;2287323;55;21065;-68
2022/02/27 05:33:19;;;;;;;4.50;1.12;;;4.00;59.10;;;;;;2287518;55;20970;-69
2022/02/27 05:35:46;;;;;;;2.67;1.00;;;4.00;59.20;;;;;;2290001;55;20974;-69
2022/02/27 05:38:14;;;;;;;4.50;0.90;;;3.90;59.20;;;;;;2355443;55;20978;-68
2022/02/27 05:40:40;;;;;;;5.25;1.40;;;3.90;59.20;;;;;;2286874;55;20954;-68
2022/02/27 05:43:07;;;;;;;2.62;1.10;;;3.80;59.10;;;;;;2287341;55;20950;-68
2022/02/27 05:45:34;;;;;;;5.28;1.25;;;3.80;59.10;;;;;;2287170;55;21865;-69
2022/02/27 05:48:00;;;;;;;6.32;1.50;;;3.70;59.10;;;;;;2287398;55;21455;-69
2022/02/27 05:50:31;;;;;;;9.40;5.60;;;3.70;59.20;;;;;;2287740;55;21015;-69
2022/02/27 05:52:57;;;;;;;14.60;8.68;;;3.60;59.20;;;;;;2287286;55;21440;-68
2022/02/27 05:55:24;;;;;;;11.38;6.03;;;3.60;59.30;;;;;;2521829;55;22166;-68
2022/02/27 05:57:51;;;;;;;9.50;5.07;;;3.50;59.30;;;;;;2450975;54;21026;-69
2022/02/27 06:00:17;;;;;;;8.57;2.72;;;3.50;59.30;;;;;;2280377;55;20926;-69
2022/02/27 06:02:43;;;;;;;4.53;2.35;;;3.50;59.40;;;;;;2287260;55;20998;-69
2022/02/27 06:05:10;;;;;;;5.62;2.00;;;3.40;59.40;;;;;;2287697;55;20962;-70
2022/02/27 06:07:36;;;;;;;4.53;1.80;;;3.40;59.40;;;;;;2286928;55;21522;-69
2022/02/27 06:10:03;;;;;;;5.07;1.70;;;3.30;59.30;;;;;;2288071;55;20974;-70
2022/02/27 06:12:29;;;;;;;4.22;1.52;;;3.30;59.40;;;;;;2287548;55;21435;-68
2022/02/27 06:14:56;;;;;;;5.93;1.50;;;3.30;59.50;;;;;;2286077;54;21823;-70
2022/02/27 06:17:41;;;;;;;4.45;1.30;;;3.20;59.50;;;;;;2287549;55;20977;-70
2022/02/27 06:20:10;;;;;;;3.75;1.30;;;3.20;59.30;;;;;;2265336;56;20938;-69
2022/02/27 06:22:44;;;;;;;8.52;1.92;;;3.10;59.40;;;;;;2288352;55;20982;-70
2022/02/27 06:25:11;;;;;;;15.75;7.57;;;3.10;59.40;;;;;;2267531;55;20954;-70
2022/02/27 06:27:42;;;;;;;8.05;3.17;;;3.10;59.50;;;;;;2286447;55;21043;-70
2022/02/27 06:30:10;;;;;;;6.15;2.58;;;3.00;59.50;;;;;;2265950;55;20938;-70
2022/02/27 06:32:37;;;;;;;7.40;2.35;;;3.00;59.70;;;;;;2287915;55;21013;-70
2022/02/27 06:35:05;;;;;;;6.43;2.50;;;3.00;59.90;;;;;;2286371;55;20942;-71
2022/02/27 06:37:34;;;;;;;8.95;3.22;;;3.00;60.00;;;;;;2292875;55;21715;-71
2022/02/27 06:40:01;;;;;;;6.22;2.30;;;3.00;60.10;;;;;;2348317;55;21285;-70
2022/02/27 06:42:27;;;;;;;7.35;2.83;;;2.90;60.10;;;;;;2287138;55;21090;-71
2022/02/27 06:45:05;;;;;;;6.80;2.50;;;2.90;60.10;;;;;;2285988;55;20953;-70
2022/02/27 06:47:41;;;;;;;7.18;2.90;;;2.90;60.10;;;;;;2288311;55;21057;-71
2022/02/27 06:50:07;;;;;;;7.93;2.62;;;2.90;60.20;;;;;;2285349;55;21544;-71
2022/02/27 06:52:34;;;;;;;8.10;2.92;;;2.90;60.30;;;;;;2288827;55;21045;-70
2022/02/27 06:55:00;;;;;;;7.62;3.10;;;2.90;60.30;;;;;;2289200;55;21781;-70
2022/02/27 06:57:32;;;;;;;8.63;3.65;;;2.90;60.40;;;;;;2309840;55;20959;-70
2022/02/27 06:59:59;;;;;;;9.23;3.50;;;2.90;60.40;;;;;;2289012;55;21017;-69
2022/02/27 07:02:25;;;;;;;9.10;3.03;;;2.90;60.40;;;;;;2278419;55;21077;-70
2022/02/27 07:05:07;;;;;;;6.03;2.97;;;2.90;60.50;;;;;;2287937;55;20997;-71
2022/02/27 07:07:34;;;;;;;6.53;2.72;;;2.90;60.50;;;;;;2281578;55;20957;-70
2022/02/27 07:10:03;;;;;;;12.70;3.35;;;2.90;60.50;;;;;;2288265;55;20966;-71
2022/02/27 07:12:30;;;;;;;9.07;3.80;;;2.90;60.60;;;;;;2336647;55;21033;-71
2022/02/27 07:14:57;;;;;;;8.02;3.20;;;2.90;60.80;;;;;;2460997;55;20978;-70
2022/02/27 07:17:25;;;;;;;6.85;3.10;;;2.90;60.90;;;;;;2519507;55;21727;-71
2022/02/27 07:19:52;;;;;;;7.18;3.15;;;2.90;61.00;;;;;;2287698;55;20958;-71
2022/02/27 07:22:19;;;;;;;7.72;3.25;;;2.90;61.10;;;;;;2289579;55;21416;-70
2022/02/27 07:24:46;;;;;;;8.18;3.33;;;3.00;61.30;;;;;;2333545;55;21058;-70
2022/02/27 07:27:12;;;;;;;6.93;3.25;;;3.00;61.40;;;;;;2289184;55;21395;-69
2022/02/27 07:29:40;;;;;;;8.20;3.85;;;3.00;61.40;;;;;;2289166;55;20974;-69
2022/02/27 07:32:10;;;;;;;8.82;3.28;;;3.10;61.50;;;;;;2367205;55;21037;-69
2022/02/27 07:34:43;;;;;;;9.30;3.40;;;3.10;61.60;;;;;;2442727;55;20978;-70
2022/02/27 07:37:10;;;;;;;8.13;3.45;;;3.10;61.70;;;;;;2288898;55;20922;-69
2022/02/27 07:39:37;;;;;;;10.02;3.65;;;3.20;61.90;;;;;;2288903;55;20998;-70
2022/02/27 07:42:04;;;;;;;8.75;3.85;;;3.30;62.00;;;;;;2288770;55;21456;-69
2022/02/27 07:44:31;;;;;;;8.10;3.50;;;3.20;62.00;;;;;;2289060;55;20988;-69
2022/02/27 07:46:57;;;;;;;10.27;4.03;;;3.40;62.30;;;;;;2288514;55;20965;-69
2022/02/27 07:49:24;;;;;;;9.35;4.60;;;3.40;62.30;;;;;;2419222;55;21465;-69
2022/02/27 07:51:50;;;;;;;9.40;4.15;;;3.50;62.50;;;;;;2287699;55;21445;-68
2022/02/27 07:54:16;;;;;;;9.65;4.22;;;3.60;62.60;;;;;;2290124;55;21447;-69
2022/02/27 07:56:43;;;;;;;11.57;4.20;;;3.60;62.60;;;;;;2286382;55;21738;-68
2022/02/27 07:59:10;;;;;;;13.48;6.35;;;3.70;62.80;;;;;;2289026;55;20993;-68
2022/02/27 08:01:37;;;;;;;12.40;5.40;;;3.80;62.80;;;;;;2288849;55;20992;-68
2022/02/27 08:04:04;;;;;;;11.80;5.57;;;3.90;63.00;;;;;;2523430;55;21439;-69
2022/02/27 08:06:37;;;;;;;9.75;3.92;;;4.00;63.10;;;;;;2289273;54;20973;-69
2022/02/27 08:09:04;;;;;;;7.97;3.50;;;4.00;63.20;;;;;;2377573;55;21296;-69
2022/02/27 08:11:30;;;;;;;6.72;2.72;;;4.20;63.40;;;;;;2289055;55;21010;-68
2022/02/27 08:13:57;;;;;;;7.75;2.70;;;4.30;63.50;;;;;;2292064;55;21029;-69
2022/02/27 08:16:24;;;;;;;9.75;3.78;;;4.40;63.50;;;;;;2301347;55;20973;-69
2022/02/27 08:18:55;;;;;;;4.30;2.10;;;4.50;63.60;;;;;;2289084;55;20986;-69
2022/02/27 08:21:35;;;;;;;4.43;1.92;;;4.60;63.70;;;;;;2288783;55;21828;-69
2022/02/27 08:24:01;;;;;;;5.90;2.20;;;4.80;63.50;;;;;;2287475;55;21029;-69
2022/02/27 08:26:27;;;;;;;4.75;1.85;;;4.90;63.80;;;;;;2288818;55;20964;-69
2022/02/27 08:28:54;;;;;;;4.05;1.87;;;5.00;63.80;;;;;;2288857;55;21835;-69
2022/02/27 08:31:20;;;;;;;5.97;1.95;;;5.20;63.90;;;;;;2289388;55;20970;-69
2022/02/27 08:33:47;;;;;;;3.40;1.40;;;5.30;63.90;;;;;;2293973;55;20962;-69
2022/02/27 08:36:15;;;;;;;5.03;1.75;;;5.40;63.90;;;;;;2488745;55;21748;-69
2022/02/27 08:38:42;;;;;;;3.62;1.50;;;5.60;64.00;;;;;;2289388;55;21164;-69
2022/02/27 08:41:21;;;;;;;6.10;1.60;;;5.70;64.00;;;;;;2497486;55;21038;-69
2022/02/27 08:43:47;;;;;;;3.58;1.42;;;5.90;63.70;;;;;;2289062;55;21433;-70
2022/02/27 08:46:15;;;;;;;4.47;1.62;;;6.00;64.30;;;;;;2369307;55;20934;-70
2022/02/27 08:48:41;;;;;;;4.35;1.65;;;6.20;65.30;;;;;;2289016;55;21585;-69
2022/02/27 08:51:08;;;;;;;4.65;1.70;;;6.50;67.10;;;;;;2305754;55;20976;-70
2022/02/27 08:53:34;;;;;;;3.92;1.58;;;6.90;69.20;;;;;;2288371;55;21739;-71
2022/02/27 08:56:00;;;;;;;3.75;1.50;;;7.30;71.10;;;;;;2393719;55;21102;-71
2022/02/27 08:58:27;;;;;;;3.83;1.40;;;7.90;72.90;;;;;;2498384;55;20966;-71
2022/02/27 09:00:55;;;;;;;4.18;1.40;;;8.40;73.70;;;;;;2283084;55;20942;-71
2022/02/27 09:03:27;;;;;;;4.97;2.00;;;8.90;74.30;;;;;;2289158;55;22040;-71
2022/02/27 09:05:53;;;;;;;4.28;1.73;;;9.60;74.70;;;;;;2338850;55;21761;-71
2022/02/27 09:08:20;;;;;;;4.00;1.40;;;10.10;72.50;;;;;;2288920;55;21490;-71
2022/02/27 09:10:49;;;;;;;3.08;1.20;;;10.60;71.10;;;;;;2318780;55;21649;-71
2022/02/27 09:13:15;;;;;;;3.12;1.17;;;11.00;69.50;;;;;;2312373;55;21085;-72
2022/02/27 09:15:42;;;;;;;4.60;1.30;;;11.30;68.20;;;;;;2500504;55;20953;-71
2022/02/27 09:18:11;;;;;;;2.75;1.30;;;11.60;67.30;;;;;;2289132;55;20970;-71
2022/02/27 09:20:37;;;;;;;5.20;1.40;;;11.80;66.30;;;;;;2319933;54;21010;-71
2022/02/27 09:23:05;;;;;;;3.35;1.10;;;11.90;64.90;;;;;;2283782;55;20958;-71
2022/02/27 09:25:32;;;;;;;4.57;1.40;;;12.00;63.80;;;;;;2353195;55;21603;-72
2022/02/27 09:28:29;;;;;;;3.95;1.40;;;12.00;62.80;;;;;;2491013;55;21531;-72
2022/02/27 09:30:55;;;;;;;2.87;1.27;;;12.00;62.30;;;;;;2330912;55;20946;-72
2022/02/27 09:33:22;;;;;;;4.90;1.50;;;12.00;62.50;;;;;;2365178;55;20950;-72
2022/02/27 09:35:55;;;;;;;4.05;1.23;;;12.00;63.30;;;;;;2428802;55;21495;-72
2022/02/27 09:38:21;;;;;;;3.67;1.70;;;12.10;64.20;;;;;;2299643;55;21764;-72
2022/02/27 09:40:50;;;;;;;4.12;1.65;;;12.20;64.90;;;;;;2292627;55;21052;-71
2022/02/27 09:43:19;;;;;;;4.28;1.25;;;12.40;64.20;;;;;;2285199;55;20977;-72
2022/02/27 09:45:47;;;;;;;4.20;1.70;;;12.60;65.30;;;;;;2288966;55;21475;-72
2022/02/27 09:48:13;;;;;;;4.20;1.77;;;12.90;66.60;;;;;;2290314;54;21054;-72
2022/02/27 09:50:43;;;;;;;3.17;1.37;;;13.30;67.50;;;;;;2293615;55;21009;-73
2022/02/27 09:53:09;;;;;;;3.42;1.30;;;13.70;67.40;;;;;;2296374;55;20993;-73
2022/02/27 09:55:36;;;;;;;2.75;1.10;;;14.10;67.80;;;;;;2382403;55;20950;-73
2022/02/27 09:58:04;;;;;;;11.18;3.80;;;14.50;66.60;;;;;;2294254;55;21395;-73
2022/02/27 10:00:32;;;;;;;5.82;2.50;;;14.80;65.30;;;;;;2276464;55;20962;-70
2022/02/27 10:03:12;;;;;;;5.10;2.40;;;15.10;64.80;;;;;;2289260;55;21822;-71
2022/02/27 10:05:43;;;;;;;3.78;1.67;;;15.40;62.10;;;;;;2413295;55;21021;-69
2022/02/27 10:08:10;;;;;;;5.97;1.70;;;15.60;63.10;;;;;;2288718;55;20962;-69
2022/02/27 10:10:39;;;;;;;3.40;1.55;;;15.80;63.10;;;;;;2365086;55;21706;-72
2022/02/27 10:13:08;;;;;;;3.72;1.60;;;16.00;62.60;;;;;;2288961;55;21495;-71
2022/02/27 10:15:35;;;;;;;2.58;1.12;;;16.30;62.40;;;;;;2423866;55;20954;-69
2022/02/27 10:18:17;;;;;;;3.67;1.40;;;16.50;62.70;;;;;;2289642;55;21058;-70
2022/02/27 10:20:45;;;;;;;3.97;1.30;;;16.80;60.00;;;;;;2289244;55;21006;-69
2022/02/27 10:23:12;;;;;;;4.93;1.70;;;17.00;61.90;;;;;;2370334;54;20978;-72
2022/02/27 10:25:40;;;;;;;3.50;1.45;;;17.10;60.70;;;;;;2268960;55;20954;-69
2022/02/27 10:28:07;;;;;;;3.17;1.40;;;17.20;59.50;;;;;;2290022;55;20930;-70
2022/02/27 10:30:34;;;;;;;3.95;1.20;;;17.20;59.10;;;;;;2339627;55;21069;-68
2022/02/27 10:33:08;;;;;;;2.95;1.08;;;17.10;59.50;;;;;;2291084;55;20966;-69
2022/02/27 10:35:51;;;;;;;2.75;1.20;;;17.20;59.80;;;;;;2331927;55;20974;-70
2022/02/27 10:38:30;;;;;;;2.83;1.02;;;17.30;60.50;;;;;;2290661;55;21061;-69
2022/02/27 10:40:57;;;;;;;2.87;1.30;;;17.40;62.90;;;;;;2302114;55;21009;-69
2022/02/27 10:43:23;;;;;;;3.03;1.10;;;17.70;63.00;;;;;;2300961;55;20974;-68
2022/02/27 10:46:04;;;;;;;2.67;1.30;;;17.90;62.90;;;;;;2351552;55;21420;-69
2022/02/27 10:48:31;;;;;;;4.05;1.10;;;18.10;60.80;;;;;;2288567;55;20958;-70
2022/02/27 10:51:06;;;;;;;3.28;1.12;;;18.30;62.60;;;;;;2411872;55;20950;-69
2022/02/27 10:53:39;;;;;;;3.25;1.20;;;18.50;59.30;;;;;;2289406;55;21922;-70
2022/02/27 10:56:09;;;;;;;3.33;1.12;;;18.50;58.50;;;;;;2312217;55;20982;-70
2022/02/27 10:58:48;;;;;;;3.60;1.33;;;18.50;57.20;;;;;;2368990;55;20954;-73
2022/02/27 11:01:25;;;;;;;2.90;1.17;;;18.40;56.10;;;;;;2319633;55;21761;-72
2022/02/27 11:03:53;;;;;;;2.78;1.10;;;18.40;56.20;;;;;;2284894;55;21053;-73
2022/02/27 11:06:20;;;;;;;2.50;1.20;;;18.40;56.90;;;;;;2523457;55;21113;-73
2022/02/27 11:08:46;;;;;;;4.57;1.15;;;18.30;56.90;;;;;;2290084;55;21591;-73
2022/02/27 11:11:16;;;;;;;4.35;1.75;;;18.30;56.50;;;;;;2307316;54;21109;-72
2022/02/27 11:13:45;;;;;;;3.33;1.00;;;18.40;55.40;;;;;;2288705;55;21069;-73
2022/02/27 11:16:15;;;;;;;4.07;1.20;;;18.30;54.10;;;;;;2288975;55;21054;-71
2022/02/27 11:18:41;;;;;;;2.65;1.10;;;18.20;54.00;;;;;;2288987;55;20966;-73
2022/02/27 11:21:09;;;;;;;4.45;1.30;;;18.00;52.10;;;;;;2289118;55;20954;-73
2022/02/27 11:23:36;;;;;;;3.62;1.25;;;18.00;53.10;;;;;;2289148;55;21009;-73
2022/02/27 11:26:03;;;;;;;3.22;1.02;;;17.90;53.90;;;;;;2524589;55;20970;-73
2022/02/27 11:28:29;;;;;;;2.25;0.85;;;17.90;54.20;;;;;;2355099;55;20989;-73
2022/02/27 11:31:00;;;;;;;2.45;1.08;;;18.00;54.70;;;;;;2294553;55;21129;-72
2022/02/27 11:33:27;;;;;;;2.40;1.10;;;18.10;54.80;;;;;;2289305;55;20950;-70
2022/02/27 11:35:58;;;;;;;3.47;1.10;;;18.20;56.00;;;;;;2303540;55;20998;-73
2022/02/27 11:38:34;;;;;;;3.12;1.23;;;18.20;55.30;;;;;;2288706;55;21438;-72
2022/02/27 11:41:10;;;;;;;2.30;0.88;;;18.40;53.70;;;;;;2318558;55;21415;-73
2022/02/27 11:44:13;;;;;;;2.05;0.82;;;18.50;53.80;;;;;;2265977;55;21553;-71
2022/02/27 11:47:00;;;;;;;3.62;0.98;;;18.60;52.80;;;;;;2317404;55;21903;-74
2022/02/27 11:49:27;;;;;;;3.33;0.88;;;18.70;54.30;;;;;;2288203;54;20987;-73
2022/02/27 11:52:12;;;;;;;3.40;1.10;;;18.90;55.60;;;;;;2294603;55;21066;-73
2022/02/27 11:54:53;;;;;;;1.90;0.80;;;19.00;55.00;;;;;;2289294;55;20982;-73
2022/02/27 11:57:27;;;;;;;2.40;0.93;;;19.20;55.00;;;;;;2314278;55;20970;-72
2022/02/27 12:00:07;;;;;;;3.12;0.93;;;19.40;55.70;;;;;;2288865;55;20950;-73
2022/02/27 12:02:39;;;;;;;2.22;0.93;;;19.60;56.60;;;;;;2390531;55;20938;-72
2022/02/27 12:05:14;;;;;;;2.80;1.10;;;19.90;57.10;;;;;;2289543;55;20958;-70
2022/02/27 12:08:03;;;;;;;2.92;1.08;;;20.10;55.30;;;;;;2384308;55;21693;-72
2022/02/27 12:10:44;;;;;;;1.75;0.70;;;20.20;52.60;;;;;;2288990;55;20997;-69
2022/02/27 12:18:19;;;;;;;3.22;0.93;;;20.30;51.80;;;;;;2269962;55;20990;-73
2022/02/27 12:20:54;;;;;;;1.90;0.77;;;20.10;51.20;;;;;;2289056;55;21098;-69
2022/02/27 12:24:07;;;;;;;2.33;0.70;;;20.00;51.30;;;;;;2518961;55;21862;-71
2022/02/27 12:26:43;;;;;;;1.87;0.65;;;19.80;48.90;;;;;;2323760;55;21807;-71
2022/02/27 12:29:26;;;;;;;2.12;0.80;;;19.60;50.50;;;;;;2302802;55;21033;-71
2022/02/27 12:31:52;;;;;;;1.92;0.62;;;19.60;50.00;;;;;;2382309;54;21014;-72
2022/02/27 12:34:22;;;;;;;2.50;0.70;;;19.50;51.70;;;;;;2285517;55;20966;-72
2022/02/27 12:36:50;;;;;;;1.83;0.70;;;19.50;50.70;;;;;;2289164;55;21412;-72
2022/02/27 12:39:17;;;;;;;2.28;0.90;;;19.60;51.30;;;;;;2417785;55;20958;-72
2022/02/27 12:41:49;;;;;;;3.30;1.10;;;19.60;50.90;;;;;;2290199;55;21025;-72
2022/02/27 12:44:43;;;;;;;1.85;0.68;;;19.60;50.10;;;;;;2376557;55;20987;-73
2022/02/27 12:47:11;;;;;;;2.65;0.70;;;19.50;47.60;;;;;;2287060;55;20937;-71
2022/02/27 12:52:25;;;;;;;1.80;0.75;;;19.40;50.00;;;;;;2291850;55;22190;-71
2022/02/27 12:54:53;;;;;;;2.17;0.70;;;19.40;50.20;;;;;;2462662;55;21416;-71
2022/02/27 12:57:20;;;;;;;1.75;0.60;;;19.40;50.40;;;;;;2337450;55;21066;-71
2022/02/27 12:59:49;;;;;;;2.20;0.90;;;19.40;50.60;;;;;;2288723;55;21105;-71
2022/02/27 13:02:25;;;;;;;3.03;0.82;;;19.40;50.30;;;;;;2334082;55;21006;-71
2022/02/27 13:05:01;;;;;;;2.53;0.73;;;19.50;49.60;;;;;;2327735;54;21042;-71
2022/02/27 13:07:28;;;;;;;2.12;0.80;;;19.60;49.90;;;;;;2489309;55;20957;-71
2022/02/27 13:09:55;;;;;;;1.62;0.50;;;19.70;51.30;;;;;;2290832;54;21085;-71